sensor_id;sensor_type;location;lat;lon;timestamp;pressure;altitude;pressure_sealevel;temperature;humidity
20889;BME280;10604;51.976;7.594;2023-03-20T00:00:24;101110.75;;;9.96;100.00
20889;BME280;10604;51.976;7.594;2023-03-20T00:02:50;101112.38;;;10.02;99.78
20889;BME280;10604;51.976;7.594;2023-03-20T00:05:18;101110.09;;;10.28;99.63
20889;BME280;10604;51.976;7.594;2023-03-20T00:07:46;101106.72;;;10.22;98.78
20889;BME280;10604;51.976;7.594;2023-03-20T00:10:12;101122.63;;;10.17;99.11
20889;BME280;10604;51.976;7.594;2023-03-20T00:12:37;101117.53;;;10.08;99.02
20889;BME280;10604;51.976;7.594;2023-03-20T00:15:07;101122.47;;;10.23;99.08
20889;BME280;10604;51.976;7.594;2023-03-20T00:17:42;101118.69;;;10.36;98.06
20889;BME280;10604;51.976;7.594;2023-03-20T00:20:13;101115.81;;;10.45;97.54
20889;BME280;10604;51.976;7.594;2023-03-20T00:22:39;101115.25;;;10.31;97.67
20889;BME280;10604;51.976;7.594;2023-03-20T00:25:05;101107.28;;;10.36;98.08
20889;BME280;10604;51.976;7.594;2023-03-20T00:27:31;101110.38;;;10.13;98.22
20889;BME280;10604;51.976;7.594;2023-03-20T00:29:56;101110.34;;;10.14;99.32
20889;BME280;10604;51.976;7.594;2023-03-20T00:32:22;101113.88;;;10.15;99.41
20889;BME280;10604;51.976;7.594;2023-03-20T00:34:47;101116.56;;;10.12;99.33
20889;BME280;10604;51.976;7.594;2023-03-20T00:37:13;101116.44;;;10.18;98.77
20889;BME280;10604;51.976;7.594;2023-03-20T00:39:39;101110.09;;;10.28;98.91
20889;BME280;10604;51.976;7.594;2023-03-20T00:42:06;101118.75;;;10.33;98.72
20889;BME280;10604;51.976;7.594;2023-03-20T00:44:36;101114.72;;;10.55;97.97
20889;BME280;10604;51.976;7.594;2023-03-20T00:47:08;101112.44;;;10.76;96.83
20889;BME280;10604;51.976;7.594;2023-03-20T00:49:35;101110.84;;;10.69;96.70
20889;BME280;10604;51.976;7.594;2023-03-20T00:52:03;101102.28;;;10.59;97.03
20889;BME280;10604;51.976;7.594;2023-03-20T00:54:28;101100.41;;;10.66;97.82
20889;BME280;10604;51.976;7.594;2023-03-20T00:56:56;101100.09;;;10.78;96.63
20889;BME280;10604;51.976;7.594;2023-03-20T00:59:27;101093.03;;;10.78;96.65
20889;BME280;10604;51.976;7.594;2023-03-20T01:01:53;101086.16;;;10.73;96.54
20889;BME280;10604;51.976;7.594;2023-03-20T01:04:19;101087.88;;;10.74;96.98
20889;BME280;10604;51.976;7.594;2023-03-20T01:06:46;101081.50;;;10.82;96.75
20889;BME280;10604;51.976;7.594;2023-03-20T01:09:12;101093.13;;;10.74;96.38
20889;BME280;10604;51.976;7.594;2023-03-20T01:11:38;101089.75;;;10.69;97.45
20889;BME280;10604;51.976;7.594;2023-03-20T01:14:05;101089.69;;;10.72;96.98
20889;BME280;10604;51.976;7.594;2023-03-20T01:16:36;101098.53;;;10.69;97.17
20889;BME280;10604;51.976;7.594;2023-03-20T01:19:01;101100.78;;;10.50;97.65
20889;BME280;10604;51.976;7.594;2023-03-20T01:21:27;101097.13;;;10.54;98.15
20889;BME280;10604;51.976;7.594;2023-03-20T01:23:52;101101.72;;;10.46;97.93
20889;BME280;10604;51.976;7.594;2023-03-20T01:26:29;101107.78;;;10.51;98.52
20889;BME280;10604;51.976;7.594;2023-03-20T01:28:56;101104.22;;;10.52;98.13
20889;BME280;10604;51.976;7.594;2023-03-20T01:31:21;101110.31;;;10.54;97.87
20889;BME280;10604;51.976;7.594;2023-03-20T01:33:47;101113.63;;;10.64;97.57
20889;BME280;10604;51.976;7.594;2023-03-20T01:36:14;101126.47;;;10.41;97.56
20889;BME280;10604;51.976;7.594;2023-03-20T01:38:40;101131.03;;;10.34;97.99
20889;BME280;10604;51.976;7.594;2023-03-20T01:41:15;101139.63;;;10.42;98.23
20889;BME280;10604;51.976;7.594;2023-03-20T01:43:43;101132.47;;;10.47;97.09
20889;BME280;10604;51.976;7.594;2023-03-20T01:46:29;101137.53;;;10.56;97.05
20889;BME280;10604;51.976;7.594;2023-03-20T01:50:13;101150.25;;;10.39;97.02
20889;BME280;10604;51.976;7.594;2023-03-20T01:51:54;101145.81;;;10.41;96.87
20889;BME280;10604;51.976;7.594;2023-03-20T01:54:29;101153.78;;;10.38;97.02
20889;BME280;10604;51.976;7.594;2023-03-20T01:57:10;101155.31;;;10.48;95.95
20889;BME280;10604;51.976;7.594;2023-03-20T01:59:46;101147.53;;;10.44;96.16
20889;BME280;10604;51.976;7.594;2023-03-20T02:02:16;101143.47;;;10.29;96.60
20889;BME280;10604;51.976;7.594;2023-03-20T02:04:45;101143.16;;;10.41;96.05
20889;BME280;10604;51.976;7.594;2023-03-20T02:07:14;101134.34;;;10.42;95.53
20889;BME280;10604;51.976;7.594;2023-03-20T02:09:41;101141.56;;;10.34;95.73
20889;BME280;10604;51.976;7.594;2023-03-20T02:12:06;101137.22;;;10.32;95.34
20889;BME280;10604;51.976;7.594;2023-03-20T02:14:32;101132.91;;;10.29;95.51
20889;BME280;10604;51.976;7.594;2023-03-20T02:17:00;101125.81;;;10.31;95.42
20889;BME280;10604;51.976;7.594;2023-03-20T02:19:30;101129.44;;;10.27;95.38
20889;BME280;10604;51.976;7.594;2023-03-20T02:22:30;101133.78;;;10.30;95.00
20889;BME280;10604;51.976;7.594;2023-03-20T02:28:00;101148.97;;;10.17;94.72
20889;BME280;10604;51.976;7.594;2023-03-20T02:42:07;101170.91;;;10.16;94.92
20889;BME280;10604;51.976;7.594;2023-03-20T02:44:46;101157.16;;;10.03;95.41
20889;BME280;10604;51.976;7.594;2023-03-20T02:49:59;101152.47;;;10.16;94.10
20889;BME280;10604;51.976;7.594;2023-03-20T02:52:48;101152.59;;;10.10;94.90
20889;BME280;10604;51.976;7.594;2023-03-20T02:55:38;101149.22;;;10.05;94.64
20889;BME280;10604;51.976;7.594;2023-03-20T03:00:38;101153.44;;;10.13;93.56
20889;BME280;10604;51.976;7.594;2023-03-20T03:03:06;101156.97;;;10.11;93.58
20889;BME280;10604;51.976;7.594;2023-03-20T03:05:39;101164.91;;;10.09;92.94
20889;BME280;10604;51.976;7.594;2023-03-20T03:08:08;101146.53;;;10.08;93.34
20889;BME280;10604;51.976;7.594;2023-03-20T03:10:45;101159.72;;;10.08;93.31
20889;BME280;10604;51.976;7.594;2023-03-20T03:13:15;101147.66;;;9.95;92.68
20889;BME280;10604;51.976;7.594;2023-03-20T03:15:46;101159.13;;;9.94;93.03
20889;BME280;10604;51.976;7.594;2023-03-20T03:18:18;101167.13;;;9.88;93.37
20889;BME280;10604;51.976;7.594;2023-03-20T03:20:46;101154.53;;;10.02;92.72
20889;BME280;10604;51.976;7.594;2023-03-20T03:23:22;101154.88;;;9.87;92.33
20889;BME280;10604;51.976;7.594;2023-03-20T03:25:49;101155.50;;;9.98;92.95
20889;BME280;10604;51.976;7.594;2023-03-20T03:28:44;101154.47;;;10.05;91.44
20889;BME280;10604;51.976;7.594;2023-03-20T03:31:14;101142.22;;;10.04;91.43
20889;BME280;10604;51.976;7.594;2023-03-20T03:33:42;101135.31;;;9.97;91.75
20889;BME280;10604;51.976;7.594;2023-03-20T03:36:24;101135.31;;;9.97;92.04
20889;BME280;10604;51.976;7.594;2023-03-20T03:38:59;101133.53;;;9.99;92.25
20889;BME280;10604;51.976;7.594;2023-03-20T03:41:42;101119.59;;;9.94;92.36
20889;BME280;10604;51.976;7.594;2023-03-20T03:46:51;101102.06;;;9.93;92.90
20889;BME280;10604;51.976;7.594;2023-03-20T03:49:23;101105.78;;;9.82;92.94
20889;BME280;10604;51.976;7.594;2023-03-20T03:51:55;101111.13;;;9.79;93.30
20889;BME280;10604;51.976;7.594;2023-03-20T03:54:35;101101.47;;;9.80;93.51
20889;BME280;10604;51.976;7.594;2023-03-20T03:57:03;101111.03;;;9.82;93.44
20889;BME280;10604;51.976;7.594;2023-03-20T03:59:36;101102.25;;;9.83;92.72
20889;BME280;10604;51.976;7.594;2023-03-20T04:02:04;101086.31;;;9.90;92.88
20889;BME280;10604;51.976;7.594;2023-03-20T04:04:31;101090.78;;;9.86;92.45
20889;BME280;10604;51.976;7.594;2023-03-20T04:06:56;101098.63;;;9.88;92.51
20889;BME280;10604;51.976;7.594;2023-03-20T04:09:22;101102.09;;;9.91;92.39
20889;BME280;10604;51.976;7.594;2023-03-20T04:11:52;101100.31;;;9.92;91.90
20889;BME280;10604;51.976;7.594;2023-03-20T04:14:18;101101.09;;;9.95;91.76
20889;BME280;10604;51.976;7.594;2023-03-20T04:16:43;101108.13;;;9.95;91.54
20889;BME280;10604;51.976;7.594;2023-03-20T04:19:09;101105.72;;;9.86;91.86
20889;BME280;10604;51.976;7.594;2023-03-20T04:21:34;101110.00;;;9.90;92.21
20889;BME280;10604;51.976;7.594;2023-03-20T04:24:00;101106.47;;;9.92;92.13
20889;BME280;10604;51.976;7.594;2023-03-20T04:26:25;101096.06;;;9.86;91.58
20889;BME280;10604;51.976;7.594;2023-03-20T04:28:51;101098.53;;;9.94;91.05
20889;BME280;10604;51.976;7.594;2023-03-20T04:31:17;101098.63;;;9.88;91.50
20889;BME280;10604;51.976;7.594;2023-03-20T04:33:43;101093.44;;;9.85;91.71
20889;BME280;10604;51.976;7.594;2023-03-20T04:36:08;101092.09;;;9.65;92.23
20889;BME280;10604;51.976;7.594;2023-03-20T04:38:34;101097.78;;;9.87;91.75
20889;BME280;10604;51.976;7.594;2023-03-20T04:41:00;101088.22;;;9.81;91.62
20889;BME280;10604;51.976;7.594;2023-03-20T04:43:25;101087.31;;;9.84;91.41
20889;BME280;10604;51.976;7.594;2023-03-20T04:45:51;101089.91;;;9.86;91.19
20889;BME280;10604;51.976;7.594;2023-03-20T04:48:16;101092.03;;;9.68;91.58
20889;BME280;10604;51.976;7.594;2023-03-20T04:50:42;101093.75;;;9.69;91.88
20889;BME280;10604;51.976;7.594;2023-03-20T04:53:10;101087.56;;;9.72;92.18
20889;BME280;10604;51.976;7.594;2023-03-20T04:55:36;101084.78;;;9.79;91.58
20889;BME280;10604;51.976;7.594;2023-03-20T04:58:01;101098.91;;;9.75;91.36
20889;BME280;10604;51.976;7.594;2023-03-20T05:00:27;101090.91;;;9.80;91.61
20889;BME280;10604;51.976;7.594;2023-03-20T05:02:52;101096.97;;;9.83;91.39
20889;BME280;10604;51.976;7.594;2023-03-20T05:05:17;101104.34;;;9.66;91.17
20889;BME280;10604;51.976;7.594;2023-03-20T05:07:43;101099.06;;;9.66;91.47
20889;BME280;10604;51.976;7.594;2023-03-20T05:10:09;101113.91;;;9.72;91.31
20889;BME280;10604;51.976;7.594;2023-03-20T05:12:34;101104.25;;;9.72;91.30
20889;BME280;10604;51.976;7.594;2023-03-20T05:15:00;101103.56;;;9.63;91.06
20889;BME280;10604;51.976;7.594;2023-03-20T05:17:25;101097.47;;;9.59;91.79
20889;BME280;10604;51.976;7.594;2023-03-20T05:19:50;101083.41;;;9.60;91.44
20889;BME280;10604;51.976;7.594;2023-03-20T05:22:16;101085.44;;;9.46;91.58
20889;BME280;10604;51.976;7.594;2023-03-20T05:24:42;101098.25;;;9.64;91.32
20889;BME280;10604;51.976;7.594;2023-03-20T05:27:08;101101.78;;;9.65;91.13
20889;BME280;10604;51.976;7.594;2023-03-20T05:29:34;101104.34;;;9.66;90.99
20889;BME280;10604;51.976;7.594;2023-03-20T05:32:00;101102.69;;;9.62;90.81
20889;BME280;10604;51.976;7.594;2023-03-20T05:34:25;101097.28;;;9.68;90.34
20889;BME280;10604;51.976;7.594;2023-03-20T05:36:52;101102.72;;;9.59;90.80
20889;BME280;10604;51.976;7.594;2023-03-20T05:39:17;101104.56;;;9.57;90.81
20889;BME280;10604;51.976;7.594;2023-03-20T05:41:42;101111.34;;;9.67;90.50
20889;BME280;10604;51.976;7.594;2023-03-20T05:44:08;101102.38;;;9.77;90.10
20889;BME280;10604;51.976;7.594;2023-03-20T05:46:33;101101.53;;;9.75;89.93
20889;BME280;10604;51.976;7.594;2023-03-20T05:48:59;101105.13;;;9.73;90.10
20889;BME280;10604;51.976;7.594;2023-03-20T05:51:24;101098.25;;;9.64;89.94
20889;BME280;10604;51.976;7.594;2023-03-20T05:53:51;101121.00;;;9.67;89.98
20889;BME280;10604;51.976;7.594;2023-03-20T05:56:16;101114.09;;;9.63;89.91
20889;BME280;10604;51.976;7.594;2023-03-20T05:58:42;101125.41;;;9.66;89.36
20889;BME280;10604;51.976;7.594;2023-03-20T06:01:07;101116.81;;;9.58;89.43
20889;BME280;10604;51.976;7.594;2023-03-20T06:03:32;101114.22;;;9.57;89.97
20889;BME280;10604;51.976;7.594;2023-03-20T06:05:58;101116.81;;;9.58;89.55
20889;BME280;10604;51.976;7.594;2023-03-20T06:08:23;101113.28;;;9.59;90.20
20889;BME280;10604;51.976;7.594;2023-03-20T06:10:49;101116.75;;;9.61;89.94
20889;BME280;10604;51.976;7.594;2023-03-20T06:13:15;101116.81;;;9.58;89.47
20889;BME280;10604;51.976;7.594;2023-03-20T06:15:41;101118.50;;;9.62;90.10
20889;BME280;10604;51.976;7.594;2023-03-20T06:18:06;101128.19;;;9.60;90.16
20889;BME280;10604;51.976;7.594;2023-03-20T06:20:32;101129.03;;;9.62;89.51
20889;BME280;10604;51.976;7.594;2023-03-20T06:22:57;101119.34;;;9.63;89.38
20889;BME280;10604;51.976;7.594;2023-03-20T06:25:22;101127.09;;;9.70;89.07
20889;BME280;10604;51.976;7.594;2023-03-20T06:27:48;101125.41;;;9.66;89.27
20889;BME280;10604;51.976;7.594;2023-03-20T06:30:14;101118.34;;;9.68;88.79
20889;BME280;10604;51.976;7.594;2023-03-20T06:32:40;101139.38;;;9.71;88.98
20889;BME280;10604;51.976;7.594;2023-03-20T06:35:05;101132.56;;;9.61;88.15
20889;BME280;10604;51.976;7.594;2023-03-20T06:37:32;101130.69;;;9.66;88.53
20889;BME280;10604;51.976;7.594;2023-03-20T06:39:57;101137.78;;;9.64;88.53
20889;BME280;10604;51.976;7.594;2023-03-20T06:42:23;101141.16;;;9.69;88.39
20889;BME280;10604;51.976;7.594;2023-03-20T06:44:48;101149.19;;;9.63;88.42
20889;BME280;10604;51.976;7.594;2023-03-20T06:47:14;101150.09;;;9.62;88.68
20889;BME280;10604;51.976;7.594;2023-03-20T06:49:40;101144.06;;;9.57;88.88
20889;BME280;10604;51.976;7.594;2023-03-20T06:52:05;101150.03;;;9.65;88.00
20889;BME280;10604;51.976;7.594;2023-03-20T06:54:31;101142.09;;;9.67;87.84
20889;BME280;10604;51.976;7.594;2023-03-20T06:56:57;101141.41;;;9.59;88.21
20889;BME280;10604;51.976;7.594;2023-03-20T06:59:22;101149.22;;;9.62;86.98
20889;BME280;10604;51.976;7.594;2023-03-20T07:01:47;101149.97;;;9.68;86.95
20889;BME280;10604;51.976;7.594;2023-03-20T07:04:13;101158.84;;;9.64;86.31
20889;BME280;10604;51.976;7.594;2023-03-20T07:06:38;101158.72;;;9.70;85.80
20889;BME280;10604;51.976;7.594;2023-03-20T07:09:04;101165.41;;;9.87;86.37
20889;BME280;10604;51.976;7.594;2023-03-20T07:11:29;101170.69;;;9.87;85.03
20889;BME280;10604;51.976;7.594;2023-03-20T07:13:55;101166.16;;;9.93;85.31
20889;BME280;10604;51.976;7.594;2023-03-20T07:16:20;101182.88;;;9.91;84.68
20889;BME280;10604;51.976;7.594;2023-03-20T07:18:46;101189.88;;;9.93;83.99
20889;BME280;10604;51.976;7.594;2023-03-20T07:21:16;101186.16;;;10.02;83.11
20889;BME280;10604;51.976;7.594;2023-03-20T07:23:42;101186.06;;;10.08;82.82
20889;BME280;10604;51.976;7.594;2023-03-20T07:26:08;101171.94;;;10.09;82.92
20889;BME280;10604;51.976;7.594;2023-03-20T07:28:33;101178.63;;;10.28;82.22
20889;BME280;10604;51.976;7.594;2023-03-20T07:30:58;101175.16;;;10.26;82.40
20889;BME280;10604;51.976;7.594;2023-03-20T07:33:24;101184.84;;;10.24;82.00
20889;BME280;10604;51.976;7.594;2023-03-20T07:35:53;101170.34;;;10.02;81.38
20889;BME280;10604;51.976;7.594;2023-03-20T07:38:19;101182.56;;;10.06;81.72
20889;BME280;10604;51.976;7.594;2023-03-20T07:40:45;101175.44;;;10.11;81.37
20889;BME280;10604;51.976;7.594;2023-03-20T07:43:10;101187.66;;;10.15;81.74
20889;BME280;10604;51.976;7.594;2023-03-20T07:45:35;101180.56;;;10.20;81.31
20889;BME280;10604;51.976;7.594;2023-03-20T07:48:01;101185.09;;;10.10;81.18
20889;BME280;10604;51.976;7.594;2023-03-20T07:50:26;101182.00;;;10.35;81.32
20889;BME280;10604;51.976;7.594;2023-03-20T07:52:51;101179.44;;;10.30;81.59
20889;BME280;10604;51.976;7.594;2023-03-20T07:55:17;101188.03;;;10.40;80.40
20889;BME280;10604;51.976;7.594;2023-03-20T07:57:42;101192.75;;;10.24;79.99
20889;BME280;10604;51.976;7.594;2023-03-20T08:00:09;101184.22;;;10.53;80.00
20889;BME280;10604;51.976;7.594;2023-03-20T08:02:35;101183.22;;;10.58;79.67
20889;BME280;10604;51.976;7.594;2023-03-20T08:05:00;101177.84;;;10.62;78.58
20889;BME280;10604;51.976;7.594;2023-03-20T08:07:25;101184.94;;;10.59;77.95
20889;BME280;10604;51.976;7.594;2023-03-20T08:09:53;101182.84;;;10.74;78.89
20889;BME280;10604;51.976;7.594;2023-03-20T08:12:19;101192.75;;;10.64;78.01
20889;BME280;10604;51.976;7.594;2023-03-20T08:14:45;101185.97;;;10.52;77.53
20889;BME280;10604;51.976;7.594;2023-03-20T08:17:11;101184.94;;;10.59;77.56
20889;BME280;10604;51.976;7.594;2023-03-20T08:19:36;101184.66;;;10.72;78.40
20889;BME280;10604;51.976;7.594;2023-03-20T08:22:02;101186.09;;;10.85;76.70
20889;BME280;10604;51.976;7.594;2023-03-20T08:24:28;101197.94;;;11.04;76.43
20889;BME280;10604;51.976;7.594;2023-03-20T08:26:54;101190.78;;;11.09;76.61
20889;BME280;10604;51.976;7.594;2023-03-20T08:29:19;101196.56;;;11.23;75.59
20889;BME280;10604;51.976;7.594;2023-03-20T08:31:45;101186.72;;;10.94;76.38
20889;BME280;10604;51.976;7.594;2023-03-20T08:34:10;101191.19;;;10.94;75.91
20889;BME280;10604;51.976;7.594;2023-03-20T08:36:36;101191.97;;;10.96;75.83
20889;BME280;10604;51.976;7.594;2023-03-20T08:39:04;101199.00;;;10.97;76.00
20889;BME280;10604;51.976;7.594;2023-03-20T08:41:31;101187.53;;;10.98;74.71
20889;BME280;10604;51.976;7.594;2023-03-20T08:43:57;101189.78;;;11.15;75.58
20889;BME280;10604;51.976;7.594;2023-03-20T08:46:22;101191.25;;;11.59;74.76
20889;BME280;10604;51.976;7.594;2023-03-20T08:48:47;101185.16;;;11.89;72.97
20889;BME280;10604;51.976;7.594;2023-03-20T08:51:13;101189.81;;;11.80;72.04
20889;BME280;10604;51.976;7.594;2023-03-20T08:53:39;101183.75;;;11.76;71.91
20889;BME280;10604;51.976;7.594;2023-03-20T08:56:05;101191.16;;;11.94;71.68
20889;BME280;10604;51.976;7.594;2023-03-20T08:58:31;101186.19;;;12.14;71.60
20889;BME280;10604;51.976;7.594;2023-03-20T09:00:56;101194.25;;;12.10;68.91
20889;BME280;10604;51.976;7.594;2023-03-20T09:03:24;101185.31;;;11.83;70.40
20889;BME280;10604;51.976;7.594;2023-03-20T09:05:50;101189.03;;;11.76;69.83
20889;BME280;10604;51.976;7.594;2023-03-20T09:08:16;101190.75;;;11.79;69.22
20889;BME280;10604;51.976;7.594;2023-03-20T09:10:42;101191.00;;;11.68;67.87
20889;BME280;10604;51.976;7.594;2023-03-20T09:13:07;101185.25;;;11.86;68.01
20889;BME280;10604;51.976;7.594;2023-03-20T09:15:33;101191.94;;;12.29;68.20
20889;BME280;10604;51.976;7.594;2023-03-20T09:17:59;101184.47;;;12.13;65.75
20889;BME280;10604;51.976;7.594;2023-03-20T09:20:24;101191.97;;;12.27;65.74
20889;BME280;10604;51.976;7.594;2023-03-20T09:22:50;101186.78;;;12.24;63.56
20889;BME280;10604;51.976;7.594;2023-03-20T09:25:15;101197.50;;;12.20;64.20
20889;BME280;10604;51.976;7.594;2023-03-20T09:27:40;101187.44;;;11.69;64.82
20889;BME280;10604;51.976;7.594;2023-03-20T09:30:07;101197.72;;;11.81;64.79
20889;BME280;10604;51.976;7.594;2023-03-20T09:32:33;101194.88;;;11.55;64.72
20889;BME280;10604;51.976;7.594;2023-03-20T09:34:59;101203.72;;;11.54;64.32
20889;BME280;10604;51.976;7.594;2023-03-20T09:37:25;101202.22;;;12.08;62.84
20889;BME280;10604;51.976;7.594;2023-03-20T09:39:51;101205.69;;;12.10;61.80
20889;BME280;10604;51.976;7.594;2023-03-20T09:42:28;101209.41;;;11.71;62.91
20889;BME280;10604;51.976;7.594;2023-03-20T09:45:04;101205.78;;;11.76;62.18
20889;BME280;10604;51.976;7.594;2023-03-20T09:55:21;101210.91;;;12.13;57.57
20889;BME280;10604;51.976;7.594;2023-03-20T09:57:56;101208.88;;;11.92;59.46
20889;BME280;10604;51.976;7.594;2023-03-20T10:00:25;101201.50;;;12.33;59.11
20889;BME280;10604;51.976;7.594;2023-03-20T10:02:58;101206.78;;;12.33;60.23
20889;BME280;10604;51.976;7.594;2023-03-20T10:05:25;101207.72;;;12.60;59.76
20889;BME280;10604;51.976;7.594;2023-03-20T10:08:02;101205.88;;;12.34;58.38
20889;BME280;10604;51.976;7.594;2023-03-20T10:13:39;101204.38;;;12.25;58.59
20889;BME280;10604;51.976;7.594;2023-03-20T10:18:37;101192.25;;;11.87;57.98
20889;BME280;10604;51.976;7.594;2023-03-20T10:21:05;101192.16;;;11.90;58.63
20889;BME280;10604;51.976;7.594;2023-03-20T10:24:05;101182.09;;;12.34;57.97
20889;BME280;10604;51.976;7.594;2023-03-20T10:26:34;101187.56;;;12.28;58.46
20889;BME280;10604;51.976;7.594;2023-03-20T10:29:06;101186.34;;;12.38;58.89
20889;BME280;10604;51.976;7.594;2023-03-20T10:34:34;101182.59;;;12.15;57.36
20889;BME280;10604;51.976;7.594;2023-03-20T10:37:37;101178.19;;;12.16;57.45
20889;BME280;10604;51.976;7.594;2023-03-20T10:42:38;101167.75;;;12.41;58.47
20889;BME280;10604;51.976;7.594;2023-03-20T10:45:07;101171.88;;;13.05;57.68
20889;BME280;10604;51.976;7.594;2023-03-20T10:47:39;101174.88;;;12.67;55.18
20889;BME280;10604;51.976;7.594;2023-03-20T10:50:16;101176.69;;;12.65;56.07
20889;BME280;10604;51.976;7.594;2023-03-20T10:52:43;101176.59;;;12.95;55.77
20889;BME280;10604;51.976;7.594;2023-03-20T10:55:29;101162.88;;;13.09;55.11
20889;BME280;10604;51.976;7.594;2023-03-20T10:58:02;101163.50;;;13.68;53.00
20889;BME280;10604;51.976;7.594;2023-03-20T11:00:30;101159.28;;;13.38;53.10
20889;BME280;10604;51.976;7.594;2023-03-20T11:02:56;101163.78;;;12.82;54.41
20889;BME280;10604;51.976;7.594;2023-03-20T11:05:27;101174.31;;;12.85;53.42
20889;BME280;10604;51.976;7.594;2023-03-20T11:08:01;101155.34;;;12.71;53.64
20889;BME280;10604;51.976;7.594;2023-03-20T11:10:30;101157.56;;;12.84;54.17
20889;BME280;10604;51.976;7.594;2023-03-20T11:12:56;101153.50;;;12.45;54.15
20889;BME280;10604;51.976;7.594;2023-03-20T11:17:56;101159.16;;;12.34;54.92
20889;BME280;10604;51.976;7.594;2023-03-20T11:20:22;101150.97;;;12.70;53.77
20889;BME280;10604;51.976;7.594;2023-03-20T11:22:48;101160.69;;;12.95;52.51
20889;BME280;10604;51.976;7.594;2023-03-20T11:25:28;101146.19;;;12.53;54.35
20889;BME280;10604;51.976;7.594;2023-03-20T11:27:55;101149.75;;;12.52;55.27
20889;BME280;10604;51.976;7.594;2023-03-20T11:30:21;101145.75;;;12.39;53.83
20889;BME280;10604;51.976;7.594;2023-03-20T11:32:49;101137.81;;;12.39;53.39
20889;BME280;10604;51.976;7.594;2023-03-20T11:37:52;101129.34;;;12.57;54.09
20889;BME280;10604;51.976;7.594;2023-03-20T11:40:23;101135.09;;;12.42;54.05
20889;BME280;10604;51.976;7.594;2023-03-20T11:42:57;101135.34;;;12.34;55.13
20889;BME280;10604;51.976;7.594;2023-03-20T11:45:53;101133.13;;;12.21;53.66
20889;BME280;10604;51.976;7.594;2023-03-20T11:48:24;101126.78;;;12.54;55.13
20889;BME280;10604;51.976;7.594;2023-03-20T11:51:02;101125.84;;;12.55;53.21
20889;BME280;10604;51.976;7.594;2023-03-20T11:53:57;101141.38;;;12.66;54.45
20889;BME280;10604;51.976;7.594;2023-03-20T11:56:24;101139.91;;;13.10;54.73
20889;BME280;10604;51.976;7.594;2023-03-20T12:01:22;101136.41;;;13.09;53.52
20889;BME280;10604;51.976;7.594;2023-03-20T12:04:00;101133.19;;;12.73;53.59
20889;BME280;10604;51.976;7.594;2023-03-20T12:06:45;101137.00;;;12.37;53.72
20889;BME280;10604;51.976;7.594;2023-03-20T12:09:25;101137.63;;;12.45;55.41
20889;BME280;10604;51.976;7.594;2023-03-20T12:20:04;101128.06;;;12.41;55.13
20889;BME280;10604;51.976;7.594;2023-03-20T12:22:36;101129.75;;;12.43;53.69
20889;BME280;10604;51.976;7.594;2023-03-20T12:25:29;101124.13;;;12.54;54.32
20889;BME280;10604;51.976;7.594;2023-03-20T12:28:13;101131.91;;;12.59;54.10
20889;BME280;10604;51.976;7.594;2023-03-20T12:35:58;101138.19;;;13.09;54.37
20889;BME280;10604;51.976;7.594;2023-03-20T12:38:30;101131.38;;;13.28;55.18
20889;BME280;10604;51.976;7.594;2023-03-20T12:57:56;101134.28;;;12.40;57.97
20889;BME280;10604;51.976;7.594;2023-03-20T13:00:46;101125.31;;;12.44;56.66
20889;BME280;10604;51.976;7.594;2023-03-20T13:03:36;101122.16;;;12.33;56.80
20889;BME280;10604;51.976;7.594;2023-03-20T13:06:21;101132.81;;;12.30;58.07
20889;BME280;10604;51.976;7.594;2023-03-20T13:11:47;101133.44;;;12.38;57.78
20889;BME280;10604;51.976;7.594;2023-03-20T13:14:32;101132.94;;;12.27;58.46
20889;BME280;10604;51.976;7.594;2023-03-20T13:17:10;101140.03;;;12.25;61.55
20889;BME280;10604;51.976;7.594;2023-03-20T13:22:48;101133.91;;;11.62;63.50
20889;BME280;10604;51.976;7.594;2023-03-20T13:27:54;101129.09;;;11.78;63.71
20889;BME280;10604;51.976;7.594;2023-03-20T13:30:44;101122.16;;;11.74;65.52
20889;BME280;10604;51.976;7.594;2023-03-20T13:33:35;101124.38;;;11.57;65.37
20889;BME280;10604;51.976;7.594;2023-03-20T13:38:46;101118.53;;;11.13;68.20
20889;BME280;10604;51.976;7.594;2023-03-20T13:41:13;101117.63;;;11.47;68.99
20889;BME280;10604;51.976;7.594;2023-03-20T13:43:46;101126.03;;;11.61;68.20
20889;BME280;10604;51.976;7.594;2023-03-20T13:46:23;101112.09;;;11.56;68.47
20889;BME280;10604;51.976;7.594;2023-03-20T13:48:50;101114.13;;;11.45;68.14
20889;BME280;10604;51.976;7.594;2023-03-20T14:02:09;101100.94;;;11.77;68.88
20889;BME280;10604;51.976;7.594;2023-03-20T14:04:37;101094.53;;;11.53;68.84
20889;BME280;10604;51.976;7.594;2023-03-20T14:09:55;101103.44;;;11.51;71.50
20889;BME280;10604;51.976;7.594;2023-03-20T14:12:25;101088.59;;;11.14;70.77
20889;BME280;10604;51.976;7.594;2023-03-20T14:14:55;101089.91;;;10.96;69.43
20889;BME280;10604;51.976;7.594;2023-03-20T14:17:26;101091.63;;;10.99;70.71
20889;BME280;10604;51.976;7.594;2023-03-20T14:19:53;101090.22;;;11.18;70.62
20889;BME280;10604;51.976;7.594;2023-03-20T14:22:33;101093.59;;;11.23;68.96
20889;BME280;10604;51.976;7.594;2023-03-20T14:25:05;101075.22;;;11.20;69.00
20889;BME280;10604;51.976;7.594;2023-03-20T14:27:52;101078.72;;;11.52;70.58
20889;BME280;10604;51.976;7.594;2023-03-20T14:33:44;101080.75;;;11.74;70.04
20889;BME280;10604;51.976;7.594;2023-03-20T14:35:47;101078.44;;;11.62;69.50
20889;BME280;10604;51.976;7.594;2023-03-20T14:41:13;101066.47;;;11.49;68.59
20889;BME280;10604;51.976;7.594;2023-03-20T14:43:46;101062.44;;;11.67;70.94
20889;BME280;10604;51.976;7.594;2023-03-20T14:48:46;101065.56;;;11.50;69.07
20889;BME280;10604;51.976;7.594;2023-03-20T14:51:21;101065.47;;;11.84;68.91
20889;BME280;10604;51.976;7.594;2023-03-20T14:56:46;101052.72;;;11.98;68.05
20889;BME280;10604;51.976;7.594;2023-03-20T14:59:13;101058.19;;;11.92;69.18